Pagrindinis puslapis
METAR-TAF:

METAR-TAF

Oro uostai :

Mardin, Turkija

platuma: 37-13-58N, ilguma: 40-38-26E, Aukštis: 527 m

Dabartinis oras

Ataskaita buvo paskelbta 1 valandą ir 41 minutes, ne 05:50 UTC
Vėjas 6 kt iš Šiaurės/Šiaurės Rytų
Temperatūra 33°C
Drėgmė 13%
Slėgis 1012 hPa
Matomumas 10 km arba daugiau
nėra debesų žemiau 1500 m ir nėra kamuolinių lietaus debesų

METAR: LTCR 140550Z 02006KT CAVOK 33/01 Q1012

Laikas: 10:31 (07:31 UTC)

Prognozė

Ataskaita buvo paskelbta 2 valandos ir 51 minutes, ne 04:40 UTC
Prognozė galioja nuo 14 metu 06 UTC su 14 metu 15 UTC
Vėjas 6 kt iš Šiaurės
Matomumas 10 km arba daugiau
nėra debesų žemiau 1500 m ir nėra kamuolinių lietaus debesų
Tapsmas
nuo 14 metu 11 UTC su 14 metu 13 UTC
Vėjas 10 kt iš Vakarų/Šiaurės Vakarų

TAF: LTCR 140440Z 1406/1415 36006KT CAVOK BECMG 1411/1413 30010KT

Orai ataskaitas ir orų prognozės (METAR, TAF).

turimą stotys yra geltonos ir raudonos taškus žemėlapyje.

Perkelti pele per norėdami pamatyti stoties vardą.

Tada spustelėkite, norėdami matyti oro stebėjimo ir prognozės.

Norėdami pakeisti žemėlapį: spustelėkite ant žalios mygtukų su juodo kryžiaus žemyn,; žalią mygtuką su brūkšneliu, jei norite nutolinti; arba žalių rodyklių gretimoms žemėlapius.


METAR-TAF: